Flight Track Log - Related Links

Times and Time Zones

All times are in EDT time to prevent confusion due to time zone crossing. See the AFR6149 flight status page for this flight to view local times or setup timezone preferences in your user account.

Time Position Orientation Groundspeed Altitude Reporting Facility
EDT Latitude Longitude Course Direction KTS MPH feet Rate Location/Type
Wed 03:08:00 PM 44.5627 1.5328 North  Level Estimated
Wed 03:09:00 PM 44.6250 1.5443 North  Level Estimated
Wed 03:10:00 PM 44.6872 1.5557 North  Level Estimated
Wed 03:11:00 PM 44.7494 1.5673 North  Level Estimated
Wed 03:12:00 PM 44.8116 1.5788 North  Level Estimated
Wed 03:13:00 PM 44.8739 1.5903 North  Level Estimated
Wed 03:14:00 PM 44.9361 1.6019 North  Level Estimated
Wed 03:15:00 PM 44.9983 1.6135 North  Level Estimated
Wed 03:16:00 PM 45.0606 1.6252 North  Level Estimated
Wed 03:17:00 PM 45.1228 1.6368 North  Level Estimated
Wed 03:18:00 PM 45.1850 1.6485 North  Level Estimated
Wed 03:19:00 PM 45.2472 1.6602 North  Level Estimated
Wed 03:20:00 PM 45.3095 1.6719 North  Level Estimated
Wed 03:21:00 PM 45.3717 1.6837 North  Level Estimated
Wed 03:22:00 PM 45.4339 1.6955 North  Level Estimated
Wed 03:23:00 PM 45.4961 1.7073 North  Level Estimated
Wed 03:24:00 PM 45.5583 1.7191 North  Level Estimated
Wed 03:25:00 PM 45.6206 1.7310 North  Level Estimated
Wed 03:26:00 PM 45.6828 1.7429 North  Level Estimated
Wed 03:27:00 PM 45.7450 1.7548 North  Level Estimated
Wed 03:28:00 PM 45.8072 1.7667 North  Level Estimated
Wed 03:29:00 PM 45.8694 1.7787 North  Level Estimated
Wed 03:30:00 PM 45.9316 1.7907 North  Level Estimated
Wed 03:31:00 PM 45.9938 1.8027 North  Level Estimated
Wed 03:32:00 PM 46.0667 1.8169 North  Level Estimated
Wed 03:33:00 PM 46.1396 1.8310 North  Level Estimated
Wed 03:34:00 PM 46.2124 1.8452 North  Level Estimated
Wed 03:35:00 PM 46.2853 1.8594 North  Level Estimated
Wed 03:36:00 PM 46.3582 1.8737 North  Level Estimated
Wed 03:37:00 PM 46.4310 1.8880 North  Level Estimated
Wed 03:38:00 PM 46.5039 1.9024 North  Level Estimated
Wed 03:39:00 PM 46.5767 1.9167 North  Level Estimated
Wed 03:40:00 PM 46.6496 1.9312 North  Level Estimated
Wed 03:41:00 PM 46.7225 1.9456 North  Level Estimated
Wed 03:42:00 PM 46.7953 1.9601 North  Level Estimated
Wed 03:43:00 PM 46.8682 1.9747 North  Level Estimated
Wed 03:44:00 PM 46.9410 1.9892 North  Level Estimated
Wed 03:45:00 PM 47.0149 2.0041 North  Level Estimated
Wed 03:46:00 PM 47.0888 2.0189 North  Level Estimated
Wed 03:47:00 PM 47.1627 2.0339 North  Level Estimated
Wed 03:48:00 PM 47.2366 2.0488 North  Level Estimated
Wed 03:49:00 PM 47.3105 2.0638 North  Level Estimated
Wed 03:50:00 PM 47.3844 2.0789 North  Level Estimated
Wed 03:51:00 PM 47.4583 2.0940 North  Level Estimated
Wed 03:52:00 PM 47.5322 2.1091 North  Level Estimated
Wed 03:53:00 PM 47.6061 2.1242 North  Level Estimated
Wed 03:54:00 PM 47.6800 2.1395 North  Level Estimated
Wed 03:55:00 PM 47.7538 2.1547 North  Level Estimated
Wed 03:56:00 PM 47.8277 2.1700 North  Level Estimated
Wed 03:57:00 PM 47.9016 2.1853 North  Level Estimated
Wed 03:58:00 PM 47.9755 2.2007 North  Level Estimated
Wed 03:59:00 PM 48.0494 2.2162 North  Level Estimated
Wed 04:00:00 PM 48.1232 2.2316 North  Level Estimated
Wed 04:01:00 PM 48.1971 2.2472 North  Level Estimated
Wed 04:02:00 PM 48.2710 2.2627 North  Level Estimated
Wed 04:03:00 PM 48.3448 2.2783 North  Level Estimated
Wed 04:04:00 PM 48.4187 2.2940 North  Level Estimated
Wed 04:05:00 PM 48.4926 2.3097 North  Level Estimated
Wed 04:06:00 PM 48.5664 2.3254 North  Level Estimated
Wed 04:07:00 PM 48.6403 2.3412 North  Level Estimated
Wed 04:08:00 PM 48.7141 2.3570 North  Level Estimated
Wed 04:09:00 PM 48.7253 2.3594 North  Level Estimated
Wed 04:10:00 PM 48.7253 2.3594 127° Southeast  Level Estimated
Wed 04:11:00 PM 48.7253 2.3594 127° Southeast  Level Estimated
Wed 04:12:00 PM 48.7253 2.3594 127° Southeast  Level Estimated
Wed 04:13:00 PM 48.7253 2.3594 127° Southeast  Level Estimated
Wed 04:14:00 PM 48.7253 2.3594 127° Southeast  Level Estimated
Wed 04:15:00 PM 48.7253 2.3594 127° Southeast  Level Estimated

Login

Don't have an account? Register now (free) for customized features, flight alerts, and more!